Terminal Aerodrome Forecast
Issued by NWS North Platte, NE

Home | Current Version | Previous Version | Text Only | Print | Product List | Glossary Off
Versions: 1 2 3 4 5 6 7 8 9 10 11 12 13 14 15 16 17 18 19 20 21 22 23 24 25

000
FTUS43 KLBF 251200 AAA
TAFVTN
TAF AMD
KVTN 251253Z 2513/2612 05005KT 5SM BR OVC002
      TEMPO 2513/2515 1SM -SHRA BR OVC002
     FM251500 35005KT P6SM -SHRA SCT008 OVC015
     FM251700 VRB06KT P6SM VCTS BKN020CB=

USA.gov is the U.S. government's official web portal to all federal, state and local government web resources and services.